Time;durP1;ratioP1;P1;durP2;ratioP2;P2;SDS_P1;SDS_P2;PMS_P1;PMS_P2;Temp;Humidity;BMP_temperature;BMP_pressure;BME280_temperature;BME280_humidity;BME280_pressure;Samples;Min_cycle;Max_cycle;Signal;HPM_P1;HPM_P2
2022/11/23 00:01:09;;;;;;;7.70;2.58;;;8.80;99.90;;;;;;4954934;28;20110;-61
2022/11/23 00:03:34;;;;;;;6.05;2.22;;;8.90;99.90;;;;;;4958783;28;20086;-61
2022/11/23 00:06:01;;;;;;;8.35;2.40;;;8.90;99.90;;;;;;4960212;28;20511;-61
2022/11/23 00:08:26;;;;;;;7.50;2.30;;;9.00;99.90;;;;;;4976627;28;20035;-61
2022/11/23 00:10:52;;;;;;;6.47;1.70;;;9.00;99.90;;;;;;4960537;28;20093;-61
2022/11/23 00:13:17;;;;;;;8.63;1.98;;;9.00;99.90;;;;;;4962158;28;20073;-61
2022/11/23 00:15:43;;;;;;;7.72;2.40;;;9.00;99.90;;;;;;4961008;28;20122;-61
2022/11/23 00:18:08;;;;;;;8.63;2.28;;;8.90;99.90;;;;;;4950885;28;20110;-61
2022/11/23 00:20:34;;;;;;;6.72;2.20;;;9.00;99.90;;;;;;4961652;28;20036;-61
2022/11/23 00:23:00;;;;;;;11.30;2.00;;;9.00;99.90;;;;;;4964270;28;20077;-61
2022/11/23 00:25:26;;;;;;;6.40;1.63;;;9.00;99.90;;;;;;4957457;28;20035;-61
2022/11/23 00:27:51;;;;;;;7.95;1.67;;;9.20;99.90;;;;;;4959292;28;20129;-61
2022/11/23 00:30:17;;;;;;;5.90;1.88;;;9.20;99.90;;;;;;4950976;28;20197;-62
2022/11/23 00:32:42;;;;;;;9.45;1.73;;;9.10;99.90;;;;;;4956154;28;20051;-61
2022/11/23 00:35:08;;;;;;;11.48;1.60;;;9.10;99.90;;;;;;4955430;28;20546;-61
2022/11/23 00:37:33;;;;;;;6.95;1.83;;;9.10;99.90;;;;;;4964296;28;20027;-60
2022/11/23 00:39:59;;;;;;;7.65;1.90;;;9.20;99.90;;;;;;4963401;28;20085;-61
2022/11/23 00:42:25;;;;;;;8.73;2.08;;;9.10;99.90;;;;;;4966907;28;20038;-60
2022/11/23 00:44:50;;;;;;;8.15;1.80;;;9.10;99.90;;;;;;4975975;28;20121;-62
2022/11/23 00:47:16;;;;;;;9.77;2.15;;;9.20;99.90;;;;;;4964293;28;20035;-60
2022/11/23 00:49:41;;;;;;;10.82;2.13;;;9.30;99.90;;;;;;4965046;28;20027;-60
2022/11/23 00:52:07;;;;;;;7.88;2.05;;;9.20;99.90;;;;;;4966783;28;20081;-60
2022/11/23 00:54:32;;;;;;;9.38;2.15;;;9.10;99.90;;;;;;4957473;28;20062;-60
2022/11/23 00:56:58;;;;;;;8.77;2.10;;;9.00;99.90;;;;;;4966601;28;20046;-61
2022/11/23 00:59:23;;;;;;;12.57;2.30;;;9.20;99.90;;;;;;4968992;28;20040;-62
2022/11/23 01:01:49;;;;;;;9.57;2.13;;;9.10;99.90;;;;;;4963550;28;20082;-60
2022/11/23 01:04:14;;;;;;;9.65;2.40;;;9.10;99.90;;;;;;4966292;28;20493;-61
2022/11/23 01:06:40;;;;;;;6.15;2.15;;;9.00;99.90;;;;;;4965414;28;20427;-61
2022/11/23 01:09:17;;;;;;;10.48;2.35;;;9.00;99.90;;;;;;4955059;28;20041;-60
2022/11/23 01:11:43;;;;;;;9.55;2.20;;;8.90;99.90;;;;;;4966744;28;20597;-61
2022/11/23 01:14:10;;;;;;;8.10;1.90;;;8.90;99.90;;;;;;4965828;28;20124;-61
2022/11/23 01:16:37;;;;;;;10.38;2.63;;;8.90;99.90;;;;;;4971449;28;20486;-61
2022/11/23 01:19:07;;;;;;;9.18;2.03;;;8.90;99.90;;;;;;4963552;28;20035;-62
2022/11/23 01:21:33;;;;;;;8.50;2.72;;;9.00;99.90;;;;;;4963945;28;20082;-61
2022/11/23 01:23:59;;;;;;;12.93;2.47;;;9.00;99.90;;;;;;4959380;28;20035;-61
2022/11/23 01:26:25;;;;;;;9.07;2.28;;;9.00;99.90;;;;;;4961978;28;20458;-61
2022/11/23 01:28:51;;;;;;;5.85;1.90;;;9.00;99.90;;;;;;4961385;28;20114;-61
2022/11/23 01:31:20;;;;;;;8.20;2.00;;;9.10;99.90;;;;;;4964404;28;20122;-60
2022/11/23 01:33:46;;;;;;;6.03;1.45;;;9.10;99.90;;;;;;4968474;28;20039;-60
2022/11/23 01:36:17;;;;;;;9.65;2.03;;;9.00;99.90;;;;;;4957104;28;20027;-61
2022/11/23 01:38:44;;;;;;;7.80;1.77;;;9.00;99.90;;;;;;4954088;28;20038;-60
2022/11/23 01:41:15;;;;;;;10.55;1.90;;;9.00;99.90;;;;;;4958436;28;20360;-60
2022/11/23 01:43:41;;;;;;;7.57;2.00;;;9.10;99.90;;;;;;4964075;28;20463;-60
2022/11/23 01:46:07;;;;;;;6.10;1.50;;;9.10;99.90;;;;;;4974966;28;20055;-62
2022/11/23 01:48:36;;;;;;;8.15;2.95;;;9.20;99.90;;;;;;4965065;28;20034;-61
2022/11/23 01:51:05;;;;;;;5.05;1.52;;;9.10;99.90;;;;;;4960289;28;20405;-60
2022/11/23 01:53:32;;;;;;;7.80;2.05;;;9.10;99.90;;;;;;4967449;28;20027;-61
2022/11/23 01:56:01;;;;;;;6.38;1.77;;;9.20;99.90;;;;;;4967243;28;20031;-62
2022/11/23 01:58:30;;;;;;;11.70;2.20;;;9.10;99.90;;;;;;4960274;28;20109;-60
2022/11/23 02:00:57;;;;;;;11.10;2.15;;;9.10;99.90;;;;;;4962381;28;20035;-61
2022/11/23 02:03:22;;;;;;;8.68;2.10;;;9.10;99.90;;;;;;4965348;28;20031;-61
2022/11/23 02:05:58;;;;;;;11.00;2.00;;;9.10;99.90;;;;;;4965592;28;20031;-61
2022/11/23 02:08:24;;;;;;;8.00;1.77;;;9.10;99.90;;;;;;4964190;28;20045;-60
2022/11/23 02:10:50;;;;;;;9.23;2.30;;;9.20;99.90;;;;;;4961123;28;20036;-61
2022/11/23 02:13:16;;;;;;;9.15;2.08;;;9.20;99.90;;;;;;4966824;28;20487;-60
2022/11/23 02:15:41;;;;;;;12.13;2.13;;;9.20;99.90;;;;;;4966996;28;20094;-60
2022/11/23 02:18:21;;;;;;;11.68;2.55;;;9.20;99.90;;;;;;4963287;28;20515;-61
2022/11/23 02:20:47;;;;;;;11.07;2.00;;;9.20;99.90;;;;;;4960451;28;20035;-61
2022/11/23 02:23:49;;;;;;;8.52;2.13;;;9.20;99.90;;;;;;4967662;28;20603;-62
2022/11/23 02:26:17;;;;;;;8.35;2.10;;;9.30;99.90;;;;;;4963861;28;20380;-61
2022/11/23 02:28:51;;;;;;;11.82;2.35;;;9.40;99.90;;;;;;4967871;28;20066;-64
2022/11/23 02:31:17;;;;;;;10.80;1.90;;;9.40;99.90;;;;;;4957159;28;20062;-61
2022/11/23 02:33:42;;;;;;;12.52;2.38;;;9.20;99.90;;;;;;4959577;28;20759;-60
2022/11/23 02:36:42;;;;;;;7.22;1.52;;;9.20;99.90;;;;;;4963904;28;20034;-63
2022/11/23 02:39:11;;;;;;;7.25;1.83;;;9.20;99.90;;;;;;4968443;28;20043;-61
2022/11/23 02:41:49;;;;;;;9.80;2.30;;;9.20;99.90;;;;;;4966005;28;20112;-61
2022/11/23 02:44:24;;;;;;;9.55;1.90;;;9.20;99.90;;;;;;4958526;28;20115;-61
2022/11/23 02:46:51;;;;;;;7.47;1.70;;;9.30;99.90;;;;;;4954929;28;20070;-61
2022/11/23 02:49:16;;;;;;;9.68;2.13;;;9.30;99.90;;;;;;4960194;28;20114;-61
2022/11/23 02:51:42;;;;;;;9.35;2.10;;;9.30;99.90;;;;;;4960308;28;20189;-61
2022/11/23 02:54:08;;;;;;;6.18;1.90;;;9.20;99.90;;;;;;4956353;28;20032;-60
2022/11/23 02:56:34;;;;;;;9.85;2.33;;;9.20;99.90;;;;;;4956748;28;20662;-60
2022/11/23 02:58:59;;;;;;;8.38;2.38;;;9.20;99.90;;;;;;4965344;28;20065;-62
2022/11/23 03:01:25;;;;;;;10.80;2.00;;;9.30;99.90;;;;;;4966080;28;20042;-61
2022/11/23 03:03:50;;;;;;;11.45;2.40;;;9.30;99.90;;;;;;4963559;28;20042;-60
2022/11/23 03:06:16;;;;;;;8.70;2.35;;;9.30;99.90;;;;;;4966167;28;20027;-60
2022/11/23 03:08:41;;;;;;;11.80;2.28;;;9.30;99.90;;;;;;4965307;28;20637;-60
2022/11/23 03:11:07;;;;;;;11.68;2.53;;;9.30;99.90;;;;;;4957415;28;20167;-61
2022/11/23 03:13:33;;;;;;;16.30;2.92;;;9.20;99.90;;;;;;4962222;28;20043;-61
2022/11/23 03:15:58;;;;;;;10.93;2.15;;;9.20;99.90;;;;;;4965183;28;20371;-61
2022/11/23 03:18:24;;;;;;;9.73;2.13;;;9.20;99.90;;;;;;4961119;28;20038;-61
2022/11/23 03:20:50;;;;;;;12.73;2.35;;;9.10;99.90;;;;;;4957609;28;20023;-60
2022/11/23 03:23:16;;;;;;;13.30;2.92;;;9.10;99.90;;;;;;4955475;28;20038;-60
2022/11/23 03:25:41;;;;;;;8.90;2.65;;;9.00;99.90;;;;;;4959521;28;20033;-60
2022/11/23 03:28:07;;;;;;;13.25;2.97;;;9.00;99.90;;;;;;4963474;28;20712;-60
2022/11/23 03:30:33;;;;;;;11.05;2.30;;;8.90;99.90;;;;;;4961557;28;20144;-60
2022/11/23 03:32:58;;;;;;;14.60;2.92;;;8.90;99.90;;;;;;4959647;28;20070;-59
2022/11/23 03:35:24;;;;;;;12.20;2.10;;;8.90;99.90;;;;;;4959023;28;20050;-60
2022/11/23 03:37:49;;;;;;;5.85;1.73;;;8.90;99.90;;;;;;4966363;28;20046;-60
2022/11/23 03:40:15;;;;;;;12.10;2.65;;;8.90;99.90;;;;;;4954499;28;20055;-61
2022/11/23 03:42:41;;;;;;;13.20;2.65;;;8.90;99.90;;;;;;4960742;28;20094;-61
2022/11/23 03:45:08;;;;;;;11.68;2.13;;;8.90;99.90;;;;;;4955219;28;20059;-60
2022/11/23 03:47:33;;;;;;;13.55;2.63;;;8.80;99.90;;;;;;4958734;28;20054;-61
2022/11/23 03:49:59;;;;;;;13.43;2.47;;;8.90;99.90;;;;;;4966650;28;20070;-61
2022/11/23 03:52:24;;;;;;;11.88;2.30;;;8.90;99.90;;;;;;4965641;28;20102;-61
2022/11/23 03:54:50;;;;;;;8.65;2.28;;;8.80;99.90;;;;;;4958904;28;20130;-60
2022/11/23 03:57:16;;;;;;;12.82;2.72;;;8.90;99.90;;;;;;4953663;28;20093;-59
2022/11/23 03:59:41;;;;;;;14.18;2.75;;;8.90;99.90;;;;;;4959322;28;20035;-61
2022/11/23 04:02:07;;;;;;;15.02;2.85;;;8.90;99.90;;;;;;4963246;28;20038;-60
2022/11/23 04:04:33;;;;;;;9.43;2.28;;;8.90;99.90;;;;;;4961687;28;20027;-60
2022/11/23 04:06:59;;;;;;;15.80;2.90;;;9.00;99.90;;;;;;4959350;28;20054;-61
2022/11/23 04:09:24;;;;;;;13.25;2.92;;;9.10;99.90;;;;;;4959490;28;20111;-60
2022/11/23 04:11:51;;;;;;;17.67;2.80;;;9.10;99.90;;;;;;4965647;28;20043;-61
2022/11/23 04:14:16;;;;;;;11.43;2.47;;;9.20;99.90;;;;;;4955579;28;20027;-60
2022/11/23 04:16:42;;;;;;;15.38;2.95;;;9.20;99.90;;;;;;4961861;28;20097;-60
2022/11/23 04:19:08;;;;;;;11.00;2.78;;;9.10;99.90;;;;;;4955924;28;20030;-61
2022/11/23 04:21:33;;;;;;;14.38;2.40;;;9.10;99.90;;;;;;4964040;28;20053;-61
2022/11/23 04:23:59;;;;;;;14.48;3.08;;;9.10;99.90;;;;;;4961819;28;20039;-61
2022/11/23 04:26:24;;;;;;;9.63;2.50;;;9.10;99.90;;;;;;4966113;28;20050;-61
2022/11/23 04:28:50;;;;;;;14.05;2.63;;;9.10;99.90;;;;;;4961372;28;20565;-62
2022/11/23 04:31:15;;;;;;;12.45;2.40;;;9.10;99.90;;;;;;4961236;28;20074;-61
2022/11/23 04:33:41;;;;;;;9.32;2.65;;;9.00;99.90;;;;;;4983904;28;20042;-61
2022/11/23 04:36:07;;;;;;;13.75;2.80;;;9.00;99.90;;;;;;4968252;28;20749;-61
2022/11/23 04:38:33;;;;;;;13.43;3.20;;;9.00;99.90;;;;;;4957195;28;20031;-61
2022/11/23 04:40:59;;;;;;;11.13;2.53;;;9.00;99.90;;;;;;4965198;28;20093;-61
2022/11/23 04:43:24;;;;;;;11.65;2.40;;;9.00;99.90;;;;;;4964682;28;20097;-61
2022/11/23 04:45:50;;;;;;;10.32;2.38;;;9.00;99.90;;;;;;4956836;28;20040;-61
2022/11/23 04:48:15;;;;;;;11.85;2.55;;;9.00;99.90;;;;;;4962009;28;20114;-61
2022/11/23 04:50:41;;;;;;;15.95;2.95;;;9.00;99.90;;;;;;4955660;28;20456;-61
2022/11/23 04:53:07;;;;;;;12.23;2.65;;;9.00;99.90;;;;;;4968435;28;20027;-62
2022/11/23 04:55:33;;;;;;;13.82;2.40;;;9.00;99.90;;;;;;4959880;28;20039;-62
2022/11/23 04:57:59;;;;;;;10.13;2.28;;;9.00;99.90;;;;;;4962990;28;20061;-61
2022/11/23 05:00:25;;;;;;;15.27;2.80;;;9.10;99.90;;;;;;4962392;28;20085;-61
2022/11/23 05:02:50;;;;;;;15.43;2.67;;;9.10;99.90;;;;;;4966842;28;20043;-61
2022/11/23 05:05:16;;;;;;;11.90;2.95;;;9.10;99.90;;;;;;4952025;28;20133;-62
2022/11/23 05:07:41;;;;;;;13.20;2.25;;;9.00;99.90;;;;;;4968588;28;20061;-61
2022/11/23 05:10:07;;;;;;;9.75;2.28;;;9.00;99.90;;;;;;4966735;28;20122;-61
2022/11/23 05:12:33;;;;;;;18.80;2.95;;;9.10;99.90;;;;;;4961395;28;20058;-61
2022/11/23 05:14:59;;;;;;;16.05;2.42;;;9.10;99.90;;;;;;4969825;28;20050;-60
2022/11/23 05:17:24;;;;;;;10.57;2.35;;;9.00;99.90;;;;;;4956257;28;20463;-61
2022/11/23 05:19:50;;;;;;;8.52;2.10;;;9.00;99.90;;;;;;4954605;28;20167;-62
2022/11/23 05:22:16;;;;;;;12.07;2.17;;;9.00;99.90;;;;;;4969009;28;20058;-61
2022/11/23 05:24:41;;;;;;;19.80;3.40;;;9.10;99.90;;;;;;4962008;28;20030;-61
2022/11/23 05:27:07;;;;;;;8.70;2.22;;;9.20;99.90;;;;;;4962252;28;20410;-62
2022/11/23 05:29:32;;;;;;;11.95;2.35;;;9.20;99.90;;;;;;4963877;28;20050;-61
2022/11/23 05:31:58;;;;;;;11.35;2.40;;;9.20;99.90;;;;;;4967032;28;20047;-61
2022/11/23 05:34:23;;;;;;;9.30;2.22;;;9.30;99.90;;;;;;4962479;28;20038;-61
2022/11/23 05:36:49;;;;;;;11.90;2.33;;;9.30;99.90;;;;;;4958700;28;20043;-61
2022/11/23 05:39:14;;;;;;;13.98;2.13;;;9.30;99.90;;;;;;4966717;28;20038;-62
2022/11/23 05:41:40;;;;;;;12.73;2.55;;;9.20;99.90;;;;;;4966345;28;20039;-61
2022/11/23 05:44:05;;;;;;;14.35;2.20;;;9.10;99.90;;;;;;4966654;28;20410;-61
2022/11/23 05:46:31;;;;;;;12.75;2.00;;;9.10;99.90;;;;;;4967359;28;20394;-62
2022/11/23 05:48:57;;;;;;;10.85;2.30;;;9.10;99.90;;;;;;4972172;28;20134;-62
2022/11/23 05:51:22;;;;;;;12.30;2.10;;;9.10;99.90;;;;;;4962313;28;20027;-62
2022/11/23 05:53:48;;;;;;;10.35;1.98;;;9.10;99.90;;;;;;4965411;28;20054;-62
2022/11/23 05:56:13;;;;;;;9.32;2.25;;;9.10;99.90;;;;;;4969094;28;20031;-61
2022/11/23 05:58:39;;;;;;;9.55;2.13;;;9.10;99.90;;;;;;4960375;28;20034;-62
2022/11/23 06:01:04;;;;;;;10.52;2.05;;;9.10;99.90;;;;;;4958700;28;20038;-62
2022/11/23 06:03:30;;;;;;;15.48;2.35;;;9.10;99.90;;;;;;4962342;28;20066;-62
2022/11/23 06:05:56;;;;;;;8.63;2.05;;;9.10;99.90;;;;;;4958515;28;20035;-61
2022/11/23 06:08:21;;;;;;;12.93;2.67;;;9.10;99.90;;;;;;4968183;28;20097;-61
2022/11/23 06:10:47;;;;;;;10.80;2.00;;;9.10;99.90;;;;;;4954336;28;20480;-61
2022/11/23 06:13:12;;;;;;;14.05;2.65;;;9.20;99.90;;;;;;4964867;28;20082;-62
2022/11/23 06:15:38;;;;;;;7.93;2.50;;;9.10;99.90;;;;;;4964920;28;20046;-62
2022/11/23 06:18:04;;;;;;;10.48;1.95;;;9.10;99.90;;;;;;4955651;28;20085;-61
2022/11/23 06:20:29;;;;;;;12.70;2.63;;;9.10;99.90;;;;;;4973150;28;20071;-62
2022/11/23 06:22:55;;;;;;;12.90;2.13;;;9.10;99.90;;;;;;4968922;28;20402;-61
2022/11/23 06:25:21;;;;;;;7.32;2.40;;;9.10;99.90;;;;;;4961336;28;20031;-61
2022/11/23 06:27:58;;;;;;;16.15;2.60;;;9.00;99.90;;;;;;4955292;28;20387;-62
2022/11/23 06:30:25;;;;;;;12.13;2.33;;;9.00;99.90;;;;;;4954387;28;20091;-61
2022/11/23 06:32:51;;;;;;;13.77;1.98;;;9.00;99.90;;;;;;4966334;28;20046;-61
2022/11/23 06:35:17;;;;;;;9.80;2.28;;;9.00;99.90;;;;;;4954820;28;20046;-61
2022/11/23 06:37:43;;;;;;;12.85;2.65;;;9.20;99.90;;;;;;4966956;28;20035;-62
2022/11/23 06:40:10;;;;;;;13.10;2.20;;;9.20;99.90;;;;;;4960245;28;20035;-62
2022/11/23 06:42:35;;;;;;;11.05;2.22;;;9.20;99.90;;;;;;4964287;28;20056;-61
2022/11/23 06:45:01;;;;;;;14.98;2.50;;;9.30;99.90;;;;;;4952643;28;20033;-62
2022/11/23 06:47:27;;;;;;;10.13;2.38;;;9.10;99.90;;;;;;4960778;28;20035;-61
2022/11/23 06:49:53;;;;;;;14.57;2.30;;;9.00;99.90;;;;;;4970113;28;20043;-61
2022/11/23 06:52:18;;;;;;;12.15;2.60;;;9.10;99.90;;;;;;4972983;28;20031;-61
2022/11/23 06:54:44;;;;;;;12.15;3.28;;;9.10;99.90;;;;;;4955915;28;20046;-62
2022/11/23 06:57:10;;;;;;;16.33;3.10;;;9.20;99.90;;;;;;4963278;28;20039;-63
2022/11/23 06:59:35;;;;;;;18.63;3.95;;;9.20;99.90;;;;;;4962845;28;20470;-62
2022/11/23 07:02:01;;;;;;;12.65;3.15;;;9.20;99.90;;;;;;4964388;28;20046;-62
2022/11/23 07:04:27;;;;;;;14.57;3.83;;;9.20;99.90;;;;;;4959659;28;20042;-63
2022/11/23 07:06:52;;;;;;;14.10;3.35;;;9.30;99.90;;;;;;4965503;28;20043;-63
2022/11/23 07:09:18;;;;;;;14.13;4.10;;;9.50;99.90;;;;;;4961932;28;20066;-63
2022/11/23 07:11:44;;;;;;;11.60;2.80;;;9.50;99.90;;;;;;4977754;28;20422;-61
2022/11/23 07:14:10;;;;;;;11.63;2.70;;;9.50;99.90;;;;;;4963033;28;20030;-61
2022/11/23 07:16:36;;;;;;;13.93;3.33;;;9.40;99.90;;;;;;4968244;28;20030;-62
2022/11/23 07:19:02;;;;;;;15.73;2.60;;;9.40;99.90;;;;;;4960168;28;20038;-62
2022/11/23 07:21:27;;;;;;;10.43;2.80;;;9.30;99.90;;;;;;4959459;28;20047;-61
2022/11/23 07:23:53;;;;;;;11.55;2.45;;;9.30;99.90;;;;;;4964510;28;20038;-62
2022/11/23 07:26:19;;;;;;;9.02;2.78;;;9.40;99.90;;;;;;4962860;28;20427;-62
2022/11/23 07:28:44;;;;;;;15.93;2.70;;;9.30;99.90;;;;;;4961504;28;20536;-61
2022/11/23 07:31:10;;;;;;;8.73;2.33;;;9.30;99.90;;;;;;4958258;28;20038;-61
2022/11/23 07:33:36;;;;;;;9.07;2.40;;;9.30;99.90;;;;;;4955695;28;20092;-61
2022/11/23 07:36:02;;;;;;;12.40;2.60;;;9.20;99.90;;;;;;4957389;28;20589;-63
2022/11/23 07:38:29;;;;;;;9.65;2.50;;;9.30;99.90;;;;;;4956455;28;20093;-63
2022/11/23 07:40:54;;;;;;;13.05;2.92;;;9.30;99.90;;;;;;4960160;28;20050;-62
2022/11/23 07:43:20;;;;;;;10.57;2.72;;;9.30;99.90;;;;;;4953478;28;20574;-62
2022/11/23 07:45:46;;;;;;;13.00;2.55;;;9.30;99.90;;;;;;4949756;28;20075;-62
2022/11/23 07:48:11;;;;;;;9.57;2.45;;;9.20;99.90;;;;;;4960777;28;20031;-62
2022/11/23 07:50:38;;;;;;;9.82;2.17;;;9.20;99.90;;;;;;4957618;28;20034;-63
2022/11/23 07:53:06;;;;;;;9.65;2.20;;;9.30;99.90;;;;;;4960487;28;20058;-63
2022/11/23 07:55:32;;;;;;;10.40;2.45;;;9.40;99.90;;;;;;4971819;28;20133;-63
2022/11/23 07:57:58;;;;;;;13.57;2.88;;;9.40;99.90;;;;;;4960868;28;20122;-62
2022/11/23 08:00:25;;;;;;;11.48;2.38;;;9.30;99.90;;;;;;4962660;28;20035;-63
2022/11/23 08:02:50;;;;;;;10.77;2.30;;;9.30;99.90;;;;;;4957940;28;20129;-62
2022/11/23 08:05:16;;;;;;;14.88;2.50;;;9.30;99.90;;;;;;4957255;28;20036;-63
2022/11/23 08:07:43;;;;;;;11.68;2.28;;;9.20;99.90;;;;;;4961140;28;20027;-62
2022/11/23 08:10:11;;;;;;;11.63;2.05;;;9.30;99.90;;;;;;4962668;28;20114;-62
2022/11/23 08:12:36;;;;;;;13.98;2.28;;;9.20;99.90;;;;;;4962681;28;20066;-63
2022/11/23 08:15:02;;;;;;;7.95;2.15;;;9.30;99.90;;;;;;4957525;28;20093;-63
2022/11/23 08:17:28;;;;;;;10.45;2.00;;;9.20;99.90;;;;;;4954791;28;20035;-63
2022/11/23 08:19:53;;;;;;;9.88;2.58;;;9.30;99.90;;;;;;4962226;28;20071;-62
2022/11/23 08:22:19;;;;;;;9.00;2.13;;;9.20;99.90;;;;;;4961700;28;20031;-63
2022/11/23 08:24:44;;;;;;;9.60;2.30;;;9.10;99.90;;;;;;4959598;28;20035;-62
2022/11/23 08:27:10;;;;;;;8.93;2.10;;;9.20;99.90;;;;;;4953959;28;20047;-62
2022/11/23 08:29:36;;;;;;;9.98;2.28;;;9.20;99.90;;;;;;4962399;28;20062;-62
2022/11/23 08:32:02;;;;;;;10.25;2.50;;;9.10;99.90;;;;;;4962285;28;20031;-62
2022/11/23 08:34:28;;;;;;;11.43;2.42;;;9.10;99.90;;;;;;4958077;28;20121;-63
2022/11/23 08:36:53;;;;;;;11.18;2.40;;;9.20;99.90;;;;;;4954458;28;20186;-63
2022/11/23 08:39:19;;;;;;;10.07;1.90;;;9.20;99.90;;;;;;4972876;28;20039;-62
2022/11/23 08:41:45;;;;;;;10.95;2.42;;;9.20;99.90;;;;;;4963389;28;20051;-63
2022/11/23 08:44:11;;;;;;;9.05;2.22;;;9.30;99.90;;;;;;4958632;28;20126;-62
2022/11/23 08:46:37;;;;;;;12.68;2.35;;;9.30;99.90;;;;;;4959343;28;20039;-63
2022/11/23 08:49:04;;;;;;;14.02;2.25;;;9.30;99.90;;;;;;4955909;28;20122;-62
2022/11/23 08:51:29;;;;;;;11.10;2.20;;;9.30;99.90;;;;;;4959883;28;20478;-62
2022/11/23 08:53:55;;;;;;;11.68;2.50;;;9.30;99.90;;;;;;4960642;28;20026;-62
2022/11/23 08:56:21;;;;;;;12.18;2.20;;;9.30;99.90;;;;;;4959077;28;20100;-63
2022/11/23 08:58:46;;;;;;;10.90;2.10;;;9.40;99.90;;;;;;4956039;28;20122;-62
2022/11/23 09:01:14;;;;;;;8.98;2.30;;;9.50;99.90;;;;;;4960322;28;20218;-62
2022/11/23 09:03:40;;;;;;;8.93;2.22;;;9.50;99.90;;;;;;4957731;28;20019;-62
2022/11/23 09:06:07;;;;;;;11.77;2.75;;;9.40;99.90;;;;;;4965997;28;20399;-62
2022/11/23 09:08:33;;;;;;;15.27;2.53;;;9.40;99.90;;;;;;4965790;28;20035;-62
2022/11/23 09:11:04;;;;;;;9.82;1.73;;;9.40;99.90;;;;;;4967309;28;20031;-62
2022/11/23 09:13:30;;;;;;;11.93;2.88;;;9.40;99.90;;;;;;4967730;28;20038;-63
2022/11/23 09:16:00;;;;;;;38.22;21.70;;;9.40;99.90;;;;;;4961782;28;20035;-61
2022/11/23 09:18:27;;;;;;;16.85;4.85;;;9.50;99.90;;;;;;4963251;28;20038;-62
2022/11/23 09:20:53;;;;;;;8.60;2.30;;;9.50;99.90;;;;;;4958813;28;20402;-62
2022/11/23 09:23:18;;;;;;;10.70;2.40;;;9.50;99.90;;;;;;4977877;28;20379;-62
2022/11/23 09:25:47;;;;;;;11.38;2.40;;;9.50;99.90;;;;;;4963397;28;20061;-63
2022/11/23 09:28:13;;;;;;;15.10;2.63;;;9.50;99.90;;;;;;4958000;28;20102;-62
2022/11/23 09:30:40;;;;;;;15.40;2.88;;;9.60;99.90;;;;;;4964772;28;20110;-63
2022/11/23 09:33:07;;;;;;;16.65;3.00;;;9.50;99.90;;;;;;4976433;28;20034;-62
2022/11/23 09:35:33;;;;;;;13.48;3.08;;;9.50;99.90;;;;;;4962433;28;20459;-62
2022/11/23 09:37:59;;;;;;;13.60;2.80;;;9.50;99.90;;;;;;4966830;28;20132;-62
2022/11/23 09:40:30;;;;;;;11.90;2.28;;;9.60;99.90;;;;;;4967000;28;20131;-63
2022/11/23 09:43:26;;;;;;;10.63;2.63;;;9.60;99.90;;;;;;4969085;28;20042;-62
2022/11/23 09:45:54;;;;;;;12.18;2.60;;;9.70;99.90;;;;;;4965409;28;20047;-61
2022/11/23 09:48:30;;;;;;;9.25;2.42;;;9.70;99.90;;;;;;4964126;28;20039;-61
2022/11/23 09:51:10;;;;;;;10.85;2.58;;;9.70;99.90;;;;;;4966404;28;20061;-63
2022/11/23 09:53:58;;;;;;;18.40;2.90;;;9.60;99.90;;;;;;4961381;28;20506;-63
2022/11/23 09:56:31;;;;;;;12.00;2.55;;;9.70;99.90;;;;;;4960696;28;20125;-63
2022/11/23 09:59:01;;;;;;;11.40;2.60;;;9.70;99.90;;;;;;4961528;28;20027;-62
2022/11/23 10:01:27;;;;;;;10.15;2.63;;;9.70;99.90;;;;;;4966218;28;20041;-62
2022/11/23 10:03:53;;;;;;;9.75;2.50;;;9.70;99.90;;;;;;4959849;28;20058;-62
2022/11/23 10:06:24;;;;;;;13.85;2.88;;;9.70;99.90;;;;;;4959942;28;20477;-63
2022/11/23 10:08:50;;;;;;;7.80;2.53;;;9.70;99.90;;;;;;4961317;28;20039;-63
2022/11/23 10:11:30;;;;;;;13.20;2.80;;;9.70;99.90;;;;;;4962544;28;20655;-62
2022/11/23 10:14:32;;;;;;;11.45;2.45;;;9.80;99.90;;;;;;4960679;28;20038;-62
2022/11/23 10:17:32;;;;;;;11.45;2.47;;;9.80;99.90;;;;;;4961196;28;20038;-63
2022/11/23 10:20:16;;;;;;;9.98;2.28;;;9.80;99.90;;;;;;4963406;28;20059;-63
2022/11/23 10:22:56;;;;;;;12.85;2.70;;;9.90;99.90;;;;;;4963357;28;20027;-63
2022/11/23 10:25:23;;;;;;;7.82;1.85;;;9.90;99.90;;;;;;4947830;28;20483;-62
2022/11/23 10:27:53;;;;;;;8.10;2.13;;;9.90;99.90;;;;;;4946549;28;20044;-63
2022/11/23 10:30:19;;;;;;;11.68;2.45;;;9.90;99.90;;;;;;4954655;28;20030;-63
2022/11/23 10:33:18;;;;;;;14.43;2.50;;;9.90;99.90;;;;;;4966249;28;20097;-63
2022/11/23 10:35:44;;;;;;;13.35;2.25;;;10.00;99.90;;;;;;4961599;28;20047;-63
2022/11/23 10:38:14;;;;;;;10.57;2.28;;;10.00;99.90;;;;;;4963101;28;20039;-63
2022/11/23 10:41:05;;;;;;;10.73;2.20;;;10.00;99.90;;;;;;4959476;28;20036;-63
2022/11/23 10:43:50;;;;;;;14.15;2.60;;;10.00;99.90;;;;;;4957791;28;20035;-62
2022/11/23 10:46:22;;;;;;;11.50;2.40;;;10.10;99.90;;;;;;4958670;28;20075;-63
2022/11/23 10:48:47;;;;;;;12.20;2.35;;;10.10;99.90;;;;;;4955675;28;20093;-64
2022/11/23 10:51:20;;;;;;;11.30;2.50;;;10.10;99.90;;;;;;4954611;28;20446;-63
2022/11/23 10:53:54;;;;;;;8.55;2.50;;;10.10;99.90;;;;;;4962267;28;20760;-63
2022/11/23 10:56:20;;;;;;;15.70;3.40;;;10.00;99.90;;;;;;4962541;28;20103;-63
2022/11/23 10:58:46;;;;;;;12.75;2.28;;;10.00;99.90;;;;;;4960821;28;20472;-62
2022/11/23 11:01:15;;;;;;;13.55;2.67;;;10.00;99.90;;;;;;4956920;28;20045;-63
2022/11/23 11:03:40;;;;;;;11.18;2.78;;;10.00;99.90;;;;;;4959392;28;20121;-63
2022/11/23 11:06:06;;;;;;;10.07;2.60;;;10.00;99.90;;;;;;4965987;28;20117;-63
2022/11/23 11:08:34;;;;;;;11.40;2.28;;;10.00;99.90;;;;;;4963155;28;20031;-63
2022/11/23 11:11:06;;;;;;;11.50;2.55;;;10.00;99.90;;;;;;4959287;28;20062;-62
2022/11/23 11:13:43;;;;;;;10.43;3.72;;;10.00;99.90;;;;;;4963443;28;20549;-63
2022/11/23 11:16:29;;;;;;;9.93;2.50;;;10.00;99.90;;;;;;4959397;28;20558;-63
2022/11/23 11:18:56;;;;;;;6.63;2.00;;;10.00;99.90;;;;;;4953610;28;20050;-63
2022/11/23 11:21:23;;;;;;;11.30;2.45;;;10.00;99.90;;;;;;4952868;28;20122;-62
2022/11/23 11:24:01;;;;;;;9.32;2.38;;;10.10;99.90;;;;;;4958143;28;20047;-63
2022/11/23 11:26:29;;;;;;;7.78;1.92;;;10.10;99.90;;;;;;4957601;28;20034;-63
2022/11/23 11:28:59;;;;;;;13.15;2.42;;;10.10;99.90;;;;;;4965903;28;20062;-63
2022/11/23 11:31:47;;;;;;;9.05;2.17;;;10.10;99.90;;;;;;4964102;28;20059;-63
2022/11/23 11:34:39;;;;;;;12.95;2.03;;;10.10;99.90;;;;;;4958637;28;20133;-64
2022/11/23 11:37:10;;;;;;;7.22;2.20;;;10.10;99.90;;;;;;4956574;28;20110;-63
2022/11/23 11:39:49;;;;;;;14.32;2.28;;;10.10;99.90;;;;;;4960924;28;20058;-63
2022/11/23 11:42:39;;;;;;;9.95;2.30;;;10.10;99.90;;;;;;4953743;28;20034;-63
2022/11/23 11:45:12;;;;;;;6.63;1.60;;;10.20;99.90;;;;;;4963798;28;20033;-62
2022/11/23 11:48:07;;;;;;;9.30;2.00;;;10.20;99.90;;;;;;4959893;28;20082;-64
2022/11/23 11:50:37;;;;;;;7.88;1.75;;;10.10;99.90;;;;;;4959215;28;20347;-63
2022/11/23 11:53:07;;;;;;;12.75;2.03;;;10.20;99.90;;;;;;4961642;28;20041;-62
2022/11/23 11:55:39;;;;;;;14.00;2.55;;;10.20;99.90;;;;;;4960651;28;20964;-62
2022/11/23 11:58:10;;;;;;;10.30;2.25;;;10.30;99.90;;;;;;4956047;28;20049;-63
2022/11/23 12:00:38;;;;;;;10.38;2.10;;;10.30;99.90;;;;;;4960138;28;20125;-63
2022/11/23 12:03:19;;;;;;;9.40;1.65;;;10.40;99.90;;;;;;4957566;28;20530;-63
2022/11/23 12:05:50;;;;;;;13.20;2.28;;;10.50;99.90;;;;;;4958555;28;20097;-63
2022/11/23 12:08:39;;;;;;;10.13;2.20;;;10.40;99.90;;;;;;4958708;28;20039;-63
2022/11/23 12:11:06;;;;;;;7.28;1.70;;;10.40;99.90;;;;;;4960637;28;20034;-63
2022/11/23 12:13:34;;;;;;;6.70;1.75;;;10.30;99.90;;;;;;4960191;28;20037;-63
2022/11/23 12:16:18;;;;;;;11.63;2.33;;;10.30;99.90;;;;;;4961008;28;20038;-63
2022/11/23 12:19:07;;;;;;;9.35;1.65;;;10.30;99.90;;;;;;4960320;28;20054;-63
2022/11/23 12:21:54;;;;;;;12.23;1.95;;;10.40;99.90;;;;;;4959332;28;20031;-63
2022/11/23 12:24:24;;;;;;;7.75;1.40;;;10.40;99.90;;;;;;4959987;28;20102;-63
2022/11/23 12:27:19;;;;;;;9.07;1.60;;;10.40;99.90;;;;;;4960982;28;20125;-63
2022/11/23 12:30:19;;;;;;;9.18;1.80;;;10.40;99.90;;;;;;4963878;28;20031;-63
2022/11/23 12:33:18;;;;;;;13.15;2.60;;;10.40;99.90;;;;;;4965927;28;20039;-63
2022/11/23 12:36:17;;;;;;;10.07;1.73;;;10.30;99.90;;;;;;4962358;28;20042;-63
2022/11/23 12:38:42;;;;;;;9.48;1.90;;;10.30;99.90;;;;;;4961395;28;20029;-63
2022/11/23 12:41:08;;;;;;;5.30;1.40;;;10.50;99.90;;;;;;4967255;28;20500;-63
2022/11/23 12:43:57;;;;;;;7.97;1.55;;;10.60;99.90;;;;;;4964393;28;20075;-63
2022/11/23 12:46:47;;;;;;;8.55;1.80;;;10.50;99.90;;;;;;4956236;28;20105;-63
2022/11/23 12:49:41;;;;;;;9.02;2.00;;;10.50;99.90;;;;;;4960640;28;20482;-63
2022/11/23 12:52:46;;;;;;;8.52;1.83;;;10.40;99.90;;;;;;4963715;28;20031;-63
2022/11/23 12:55:28;;;;;;;5.32;1.33;;;10.30;99.90;;;;;;4958652;28;20038;-63
2022/11/23 12:58:13;;;;;;;25.65;14.30;;;10.30;99.90;;;;;;4981595;28;20125;-62